sensor_id;sensor_type;location;lat;lon;timestamp;temperature;humidity
33149;DHT22;19506;51.040;3.856;2022-08-20T05:38:50;20.30;99.90
33149;DHT22;19506;51.040;3.856;2022-08-20T05:41:18;20.30;99.90
33149;DHT22;19506;51.040;3.856;2022-08-20T05:43:43;20.50;99.90
33149;DHT22;19506;51.040;3.856;2022-08-20T05:46:10;20.70;99.90
33149;DHT22;19506;51.040;3.856;2022-08-20T05:48:35;20.90;99.90
33149;DHT22;19506;51.040;3.856;2022-08-20T05:51:01;21.00;99.90
33149;DHT22;19506;51.040;3.856;2022-08-20T05:53:27;21.10;99.90
33149;DHT22;19506;51.040;3.856;2022-08-20T05:55:53;21.20;99.90
33149;DHT22;19506;51.040;3.856;2022-08-20T05:58:22;21.20;99.90
33149;DHT22;19506;51.040;3.856;2022-08-20T06:00:49;21.20;99.90
33149;DHT22;19506;51.040;3.856;2022-08-20T06:03:15;21.20;99.90
33149;DHT22;19506;51.040;3.856;2022-08-20T06:06:00;21.30;99.90
33149;DHT22;19506;51.040;3.856;2022-08-20T06:08:25;21.30;99.90
33149;DHT22;19506;51.040;3.856;2022-08-20T06:10:51;21.40;99.90
33149;DHT22;19506;51.040;3.856;2022-08-20T06:13:17;21.40;99.90
33149;DHT22;19506;51.040;3.856;2022-08-20T06:15:42;21.50;99.90
33149;DHT22;19506;51.040;3.856;2022-08-20T06:18:09;21.50;99.90
33149;DHT22;19506;51.040;3.856;2022-08-20T06:20:36;21.50;99.90
33149;DHT22;19506;51.040;3.856;2022-08-20T06:23:03;21.40;99.90
33149;DHT22;19506;51.040;3.856;2022-08-20T06:25:29;21.40;99.90
33149;DHT22;19506;51.040;3.856;2022-08-20T06:27:54;21.50;99.90
33149;DHT22;19506;51.040;3.856;2022-08-20T06:30:21;21.50;99.90
33149;DHT22;19506;51.040;3.856;2022-08-20T06:32:46;21.50;99.90
33149;DHT22;19506;51.040;3.856;2022-08-20T06:35:13;21.60;99.90
33149;DHT22;19506;51.040;3.856;2022-08-20T06:37:39;21.80;99.90
33149;DHT22;19506;51.040;3.856;2022-08-20T06:40:13;21.90;99.90
33149;DHT22;19506;51.040;3.856;2022-08-20T06:42:39;21.90;99.90
33149;DHT22;19506;51.040;3.856;2022-08-20T06:45:06;21.90;99.90
33149;DHT22;19506;51.040;3.856;2022-08-20T06:47:33;22.00;99.90
33149;DHT22;19506;51.040;3.856;2022-08-20T06:49:59;22.10;99.90
33149;DHT22;19506;51.040;3.856;2022-08-20T06:52:24;22.20;99.90
33149;DHT22;19506;51.040;3.856;2022-08-20T06:54:50;22.30;99.90
33149;DHT22;19506;51.040;3.856;2022-08-20T06:57:16;22.40;99.90
33149;DHT22;19506;51.040;3.856;2022-08-20T06:59:41;22.30;99.90
33149;DHT22;19506;51.040;3.856;2022-08-20T07:02:07;22.30;99.90
33149;DHT22;19506;51.040;3.856;2022-08-20T07:04:33;22.40;99.90
33149;DHT22;19506;51.040;3.856;2022-08-20T07:06:58;22.50;99.90
33149;DHT22;19506;51.040;3.856;2022-08-20T07:09:25;22.60;99.90
33149;DHT22;19506;51.040;3.856;2022-08-20T07:11:51;22.60;99.90
33149;DHT22;19506;51.040;3.856;2022-08-20T07:14:17;22.70;99.90
33149;DHT22;19506;51.040;3.856;2022-08-20T07:16:44;22.70;99.90
33149;DHT22;19506;51.040;3.856;2022-08-20T07:19:12;22.60;99.90
33149;DHT22;19506;51.040;3.856;2022-08-20T07:21:38;22.60;99.90
33149;DHT22;19506;51.040;3.856;2022-08-20T07:24:04;22.70;99.90
33149;DHT22;19506;51.040;3.856;2022-08-20T07:26:30;22.70;99.90
33149;DHT22;19506;51.040;3.856;2022-08-20T07:28:56;22.80;99.90
33149;DHT22;19506;51.040;3.856;2022-08-20T07:31:22;22.80;99.90
33149;DHT22;19506;51.040;3.856;2022-08-20T07:34:06;22.90;99.90
33149;DHT22;19506;51.040;3.856;2022-08-20T07:36:32;23.00;99.90
33149;DHT22;19506;51.040;3.856;2022-08-20T07:38:58;23.10;99.90
33149;DHT22;19506;51.040;3.856;2022-08-20T07:41:24;23.10;99.90
33149;DHT22;19506;51.040;3.856;2022-08-20T07:43:49;23.10;99.90
33149;DHT22;19506;51.040;3.856;2022-08-20T07:46:17;23.10;99.90
33149;DHT22;19506;51.040;3.856;2022-08-20T07:48:45;23.10;99.90
33149;DHT22;19506;51.040;3.856;2022-08-20T07:51:12;23.20;99.90
33149;DHT22;19506;51.040;3.856;2022-08-20T07:53:40;23.20;99.90
33149;DHT22;19506;51.040;3.856;2022-08-20T07:56:09;23.20;99.90
33149;DHT22;19506;51.040;3.856;2022-08-20T07:58:38;23.30;99.90
33149;DHT22;19506;51.040;3.856;2022-08-20T08:01:05;23.30;99.90
33149;DHT22;19506;51.040;3.856;2022-08-20T08:03:32;23.30;99.90
33149;DHT22;19506;51.040;3.856;2022-08-20T08:05:58;23.40;99.90
33149;DHT22;19506;51.040;3.856;2022-08-20T08:08:26;23.30;99.90
33149;DHT22;19506;51.040;3.856;2022-08-20T08:10:58;23.30;99.90
33149;DHT22;19506;51.040;3.856;2022-08-20T08:13:25;23.30;99.90
33149;DHT22;19506;51.040;3.856;2022-08-20T08:15:55;23.30;99.90
33149;DHT22;19506;51.040;3.856;2022-08-20T08:18:25;23.30;99.90
33149;DHT22;19506;51.040;3.856;2022-08-20T08:20:51;23.30;99.90
33149;DHT22;19506;51.040;3.856;2022-08-20T08:23:19;23.30;99.90
33149;DHT22;19506;51.040;3.856;2022-08-20T08:25:45;23.30;99.90
33149;DHT22;19506;51.040;3.856;2022-08-20T08:28:12;23.30;99.90
33149;DHT22;19506;51.040;3.856;2022-08-20T08:30:40;23.30;99.90
33149;DHT22;19506;51.040;3.856;2022-08-20T08:33:16;23.40;99.90
33149;DHT22;19506;51.040;3.856;2022-08-20T08:35:57;23.30;99.90
33149;DHT22;19506;51.040;3.856;2022-08-20T08:38:24;23.40;99.90
33149;DHT22;19506;51.040;3.856;2022-08-20T08:40:51;23.40;99.90
33149;DHT22;19506;51.040;3.856;2022-08-20T08:43:20;23.40;99.90
33149;DHT22;19506;51.040;3.856;2022-08-20T08:45:53;23.40;99.90
33149;DHT22;19506;51.040;3.856;2022-08-20T08:48:19;23.40;99.90
33149;DHT22;19506;51.040;3.856;2022-08-20T08:50:48;23.40;99.90
33149;DHT22;19506;51.040;3.856;2022-08-20T08:53:19;23.40;99.90
33149;DHT22;19506;51.040;3.856;2022-08-20T08:55:46;23.50;99.90
33149;DHT22;19506;51.040;3.856;2022-08-20T08:58:12;23.50;99.90
33149;DHT22;19506;51.040;3.856;2022-08-20T09:00:37;23.50;99.90
33149;DHT22;19506;51.040;3.856;2022-08-20T09:03:05;23.50;99.90
33149;DHT22;19506;51.040;3.856;2022-08-20T09:05:51;23.50;99.90
33149;DHT22;19506;51.040;3.856;2022-08-20T09:08:26;23.50;99.90
33149;DHT22;19506;51.040;3.856;2022-08-20T09:10:53;23.50;99.90
33149;DHT22;19506;51.040;3.856;2022-08-20T09:13:19;23.50;99.90
33149;DHT22;19506;51.040;3.856;2022-08-20T09:15:45;23.50;99.90
33149;DHT22;19506;51.040;3.856;2022-08-20T09:18:11;23.60;99.90
33149;DHT22;19506;51.040;3.856;2022-08-20T09:20:36;23.60;99.90
33149;DHT22;19506;51.040;3.856;2022-08-20T09:23:05;23.60;99.90
33149;DHT22;19506;51.040;3.856;2022-08-20T09:25:31;23.60;99.90
33149;DHT22;19506;51.040;3.856;2022-08-20T09:27:56;23.60;99.90
33149;DHT22;19506;51.040;3.856;2022-08-20T09:30:22;23.60;99.90
33149;DHT22;19506;51.040;3.856;2022-08-20T09:32:48;23.50;99.90
33149;DHT22;19506;51.040;3.856;2022-08-20T09:35:13;23.60;99.90
33149;DHT22;19506;51.040;3.856;2022-08-20T09:37:39;23.60;99.90
33149;DHT22;19506;51.040;3.856;2022-08-20T09:40:06;23.50;99.90
33149;DHT22;19506;51.040;3.856;2022-08-20T09:42:34;23.60;99.90
33149;DHT22;19506;51.040;3.856;2022-08-20T09:45:00;23.70;99.90
33149;DHT22;19506;51.040;3.856;2022-08-20T09:47:27;23.70;99.90
33149;DHT22;19506;51.040;3.856;2022-08-20T09:49:53;23.70;99.90
33149;DHT22;19506;51.040;3.856;2022-08-20T09:52:22;23.60;99.90
33149;DHT22;19506;51.040;3.856;2022-08-20T09:54:50;23.60;99.90
33149;DHT22;19506;51.040;3.856;2022-08-20T09:57:17;23.70;99.90
33149;DHT22;19506;51.040;3.856;2022-08-20T09:59:47;23.70;99.90
33149;DHT22;19506;51.040;3.856;2022-08-20T10:02:15;23.70;99.90
33149;DHT22;19506;51.040;3.856;2022-08-20T10:04:40;23.70;99.90
33149;DHT22;19506;51.040;3.856;2022-08-20T10:07:07;23.80;99.90
33149;DHT22;19506;51.040;3.856;2022-08-20T10:09:34;23.80;99.90
33149;DHT22;19506;51.040;3.856;2022-08-20T10:12:00;23.90;99.90
33149;DHT22;19506;51.040;3.856;2022-08-20T10:14:26;23.90;99.90
33149;DHT22;19506;51.040;3.856;2022-08-20T10:16:56;23.80;99.90
33149;DHT22;19506;51.040;3.856;2022-08-20T10:19:22;23.80;99.90
33149;DHT22;19506;51.040;3.856;2022-08-20T10:21:50;23.80;99.90
33149;DHT22;19506;51.040;3.856;2022-08-20T10:24:16;23.80;99.90
33149;DHT22;19506;51.040;3.856;2022-08-20T10:26:43;23.80;99.90
33149;DHT22;19506;51.040;3.856;2022-08-20T10:29:08;23.80;99.90
33149;DHT22;19506;51.040;3.856;2022-08-20T10:31:34;23.80;99.90
33149;DHT22;19506;51.040;3.856;2022-08-20T10:33:59;23.80;99.90
33149;DHT22;19506;51.040;3.856;2022-08-20T10:36:25;23.80;99.90
33149;DHT22;19506;51.040;3.856;2022-08-20T10:38:51;23.80;99.90
33149;DHT22;19506;51.040;3.856;2022-08-20T10:41:16;23.80;99.90
33149;DHT22;19506;51.040;3.856;2022-08-20T10:43:42;23.80;99.90
33149;DHT22;19506;51.040;3.856;2022-08-20T10:46:08;23.80;99.90
33149;DHT22;19506;51.040;3.856;2022-08-20T10:48:34;23.80;99.90
33149;DHT22;19506;51.040;3.856;2022-08-20T10:51:00;23.80;99.90
33149;DHT22;19506;51.040;3.856;2022-08-20T10:53:25;23.80;99.90
33149;DHT22;19506;51.040;3.856;2022-08-20T10:55:53;23.90;99.90
33149;DHT22;19506;51.040;3.856;2022-08-20T10:58:19;23.80;99.90
33149;DHT22;19506;51.040;3.856;2022-08-20T11:00:44;23.90;99.90
33149;DHT22;19506;51.040;3.856;2022-08-20T11:03:11;23.80;99.90
33149;DHT22;19506;51.040;3.856;2022-08-20T11:05:36;23.90;99.90
33149;DHT22;19506;51.040;3.856;2022-08-20T11:08:03;23.90;99.90
33149;DHT22;19506;51.040;3.856;2022-08-20T11:10:31;23.90;99.90
33149;DHT22;19506;51.040;3.856;2022-08-20T11:13:01;23.90;99.90
33149;DHT22;19506;51.040;3.856;2022-08-20T11:15:27;23.90;99.90
33149;DHT22;19506;51.040;3.856;2022-08-20T11:17:54;23.90;99.90
33149;DHT22;19506;51.040;3.856;2022-08-20T11:20:21;23.90;99.90
33149;DHT22;19506;51.040;3.856;2022-08-20T11:22:49;23.90;99.90
33149;DHT22;19506;51.040;3.856;2022-08-20T11:25:15;24.00;99.90
33149;DHT22;19506;51.040;3.856;2022-08-20T11:27:44;24.00;99.90
33149;DHT22;19506;51.040;3.856;2022-08-20T11:30:14;24.00;99.90
33149;DHT22;19506;51.040;3.856;2022-08-20T11:32:40;24.00;99.90
33149;DHT22;19506;51.040;3.856;2022-08-20T11:35:06;24.00;99.90
33149;DHT22;19506;51.040;3.856;2022-08-20T11:37:32;24.00;99.90
33149;DHT22;19506;51.040;3.856;2022-08-20T11:39:58;24.00;99.90
33149;DHT22;19506;51.040;3.856;2022-08-20T11:42:24;24.00;99.90
33149;DHT22;19506;51.040;3.856;2022-08-20T11:44:50;24.00;99.90
33149;DHT22;19506;51.040;3.856;2022-08-20T11:47:25;24.10;99.90
33149;DHT22;19506;51.040;3.856;2022-08-20T11:52:28;24.10;99.90
33149;DHT22;19506;51.040;3.856;2022-08-20T11:54:55;24.10;99.90
33149;DHT22;19506;51.040;3.856;2022-08-20T11:57:22;24.10;99.90
33149;DHT22;19506;51.040;3.856;2022-08-20T11:59:49;24.10;99.90
33149;DHT22;19506;51.040;3.856;2022-08-20T12:02:15;24.10;99.90
33149;DHT22;19506;51.040;3.856;2022-08-20T12:04:40;24.10;99.90
33149;DHT22;19506;51.040;3.856;2022-08-20T12:07:11;24.10;99.90
33149;DHT22;19506;51.040;3.856;2022-08-20T12:09:38;24.10;99.90
33149;DHT22;19506;51.040;3.856;2022-08-20T12:12:04;24.20;99.90
33149;DHT22;19506;51.040;3.856;2022-08-20T12:14:30;24.20;99.90
33149;DHT22;19506;51.040;3.856;2022-08-20T12:16:56;24.20;99.90
33149;DHT22;19506;51.040;3.856;2022-08-20T12:19:21;24.20;99.90
33149;DHT22;19506;51.040;3.856;2022-08-20T12:21:47;24.20;99.90
33149;DHT22;19506;51.040;3.856;2022-08-20T12:24:13;24.20;99.90
33149;DHT22;19506;51.040;3.856;2022-08-20T12:26:38;24.20;99.80
33149;DHT22;19506;51.040;3.856;2022-08-20T12:29:04;24.20;99.70
33149;DHT22;19506;51.040;3.856;2022-08-20T12:31:30;24.30;99.80
33149;DHT22;19506;51.040;3.856;2022-08-20T12:33:56;24.20;99.80
33149;DHT22;19506;51.040;3.856;2022-08-20T12:36:21;24.30;99.70
33149;DHT22;19506;51.040;3.856;2022-08-20T12:38:47;24.30;99.40
33149;DHT22;19506;51.040;3.856;2022-08-20T12:41:12;24.30;99.20
33149;DHT22;19506;51.040;3.856;2022-08-20T12:43:38;24.30;99.00
33149;DHT22;19506;51.040;3.856;2022-08-20T12:46:04;24.30;98.90
33149;DHT22;19506;51.040;3.856;2022-08-20T12:48:29;24.30;98.00
33149;DHT22;19506;51.040;3.856;2022-08-20T12:50:55;24.30;98.20
33149;DHT22;19506;51.040;3.856;2022-08-20T12:53:21;24.30;98.50
33149;DHT22;19506;51.040;3.856;2022-08-20T12:55:46;24.30;98.70
33149;DHT22;19506;51.040;3.856;2022-08-20T12:58:12;24.30;98.90
33149;DHT22;19506;51.040;3.856;2022-08-20T13:00:40;24.30;98.90
33149;DHT22;19506;51.040;3.856;2022-08-20T13:03:09;24.30;98.50
33149;DHT22;19506;51.040;3.856;2022-08-20T13:05:35;24.40;98.70
33149;DHT22;19506;51.040;3.856;2022-08-20T13:08:05;24.40;98.10
33149;DHT22;19506;51.040;3.856;2022-08-20T13:10:34;24.50;97.10
33149;DHT22;19506;51.040;3.856;2022-08-20T13:13:01;24.50;97.10
33149;DHT22;19506;51.040;3.856;2022-08-20T13:15:27;24.60;97.20
33149;DHT22;19506;51.040;3.856;2022-08-20T13:17:54;24.50;97.20
33149;DHT22;19506;51.040;3.856;2022-08-20T13:20:21;24.60;97.00
33149;DHT22;19506;51.040;3.856;2022-08-20T13:22:50;24.50;97.50
33149;DHT22;19506;51.040;3.856;2022-08-20T13:25:16;24.50;97.00
33149;DHT22;19506;51.040;3.856;2022-08-20T13:27:42;24.40;97.20
33149;DHT22;19506;51.040;3.856;2022-08-20T13:30:14;24.40;97.20
33149;DHT22;19506;51.040;3.856;2022-08-20T13:32:41;24.40;96.70
33149;DHT22;19506;51.040;3.856;2022-08-20T13:35:07;24.50;97.10
33149;DHT22;19506;51.040;3.856;2022-08-20T13:37:33;24.50;97.00
33149;DHT22;19506;51.040;3.856;2022-08-20T13:39:58;24.50;96.80
33149;DHT22;19506;51.040;3.856;2022-08-20T13:42:25;24.50;97.30
33149;DHT22;19506;51.040;3.856;2022-08-20T13:44:52;24.50;97.60
33149;DHT22;19506;51.040;3.856;2022-08-20T13:47:27;24.50;97.50
33149;DHT22;19506;51.040;3.856;2022-08-20T13:52:25;24.50;97.70
33149;DHT22;19506;51.040;3.856;2022-08-20T13:54:51;24.50;97.60
33149;DHT22;19506;51.040;3.856;2022-08-20T13:57:18;24.60;97.40
33149;DHT22;19506;51.040;3.856;2022-08-20T13:59:46;24.50;97.40
33149;DHT22;19506;51.040;3.856;2022-08-20T14:02:13;24.50;97.90
33149;DHT22;19506;51.040;3.856;2022-08-20T14:04:39;24.50;98.10
33149;DHT22;19506;51.040;3.856;2022-08-20T14:07:13;24.60;97.80
33149;DHT22;19506;51.040;3.856;2022-08-20T14:09:41;24.60;98.00
33149;DHT22;19506;51.040;3.856;2022-08-20T14:12:07;24.60;98.20
33149;DHT22;19506;51.040;3.856;2022-08-20T14:14:33;24.60;98.10
33149;DHT22;19506;51.040;3.856;2022-08-20T14:16:59;24.70;98.00
33149;DHT22;19506;51.040;3.856;2022-08-20T14:19:24;24.70;98.00
33149;DHT22;19506;51.040;3.856;2022-08-20T14:21:50;24.60;98.40
33149;DHT22;19506;51.040;3.856;2022-08-20T14:24:16;24.60;97.80
33149;DHT22;19506;51.040;3.856;2022-08-20T14:26:42;24.60;98.00
33149;DHT22;19506;51.040;3.856;2022-08-20T14:29:08;24.60;97.90
33149;DHT22;19506;51.040;3.856;2022-08-20T14:31:33;24.60;97.80
33149;DHT22;19506;51.040;3.856;2022-08-20T14:33:59;24.50;97.90
33149;DHT22;19506;51.040;3.856;2022-08-20T14:36:24;24.60;98.70
33149;DHT22;19506;51.040;3.856;2022-08-20T14:38:50;24.50;98.10
33149;DHT22;19506;51.040;3.856;2022-08-20T14:41:16;24.60;98.50
33149;DHT22;19506;51.040;3.856;2022-08-20T14:43:41;24.60;98.30
33149;DHT22;19506;51.040;3.856;2022-08-20T14:46:07;24.60;97.90
33149;DHT22;19506;51.040;3.856;2022-08-20T14:48:32;24.70;98.00
33149;DHT22;19506;51.040;3.856;2022-08-20T14:50:58;24.60;98.30
33149;DHT22;19506;51.040;3.856;2022-08-20T14:53:25;24.60;98.20
33149;DHT22;19506;51.040;3.856;2022-08-20T14:55:50;24.70;97.60
33149;DHT22;19506;51.040;3.856;2022-08-20T14:58:16;24.70;96.30
33149;DHT22;19506;51.040;3.856;2022-08-20T15:00:43;24.70;96.50
33149;DHT22;19506;51.040;3.856;2022-08-20T15:03:08;24.80;96.90
33149;DHT22;19506;51.040;3.856;2022-08-20T15:05:35;24.70;97.10
33149;DHT22;19506;51.040;3.856;2022-08-20T15:08:01;24.70;97.70
33149;DHT22;19506;51.040;3.856;2022-08-20T15:10:30;24.70;97.90
33149;DHT22;19506;51.040;3.856;2022-08-20T15:12:56;24.70;98.10
33149;DHT22;19506;51.040;3.856;2022-08-20T15:15:23;24.80;97.90
33149;DHT22;19506;51.040;3.856;2022-08-20T15:17:54;24.80;97.90
33149;DHT22;19506;51.040;3.856;2022-08-20T15:20:22;24.80;98.00
33149;DHT22;19506;51.040;3.856;2022-08-20T15:22:49;24.70;98.20
33149;DHT22;19506;51.040;3.856;2022-08-20T15:25:17;24.80;98.60
33149;DHT22;19506;51.040;3.856;2022-08-20T15:27:43;24.80;99.20
33149;DHT22;19506;51.040;3.856;2022-08-20T15:30:15;24.80;98.60
33149;DHT22;19506;51.040;3.856;2022-08-20T15:32:41;24.90;98.60
33149;DHT22;19506;51.040;3.856;2022-08-20T15:35:07;24.80;99.20
33149;DHT22;19506;51.040;3.856;2022-08-20T15:37:42;24.80;99.30
33149;DHT22;19506;51.040;3.856;2022-08-20T15:40:11;24.70;97.50
33149;DHT22;19506;51.040;3.856;2022-08-20T15:42:37;24.70;98.50
33149;DHT22;19506;51.040;3.856;2022-08-20T15:45:05;24.70;98.00
33149;DHT22;19506;51.040;3.856;2022-08-20T15:47:34;24.70;97.60
33149;DHT22;19506;51.040;3.856;2022-08-20T15:50:06;24.80;97.40
33149;DHT22;19506;51.040;3.856;2022-08-20T15:52:37;24.80;97.90
33149;DHT22;19506;51.040;3.856;2022-08-20T15:55:05;24.70;98.70
33149;DHT22;19506;51.040;3.856;2022-08-20T15:58:07;24.80;99.30
33149;DHT22;19506;51.040;3.856;2022-08-20T16:00:48;24.80;99.30
33149;DHT22;19506;51.040;3.856;2022-08-20T16:06:00;24.60;99.90
33149;DHT22;19506;51.040;3.856;2022-08-20T16:14:14;24.70;99.90
33149;DHT22;19506;51.040;3.856;2022-08-20T16:16:43;24.70;99.90
33149;DHT22;19506;51.040;3.856;2022-08-20T16:19:22;24.70;99.90
33149;DHT22;19506;51.040;3.856;2022-08-20T16:21:49;24.70;99.90
33149;DHT22;19506;51.040;3.856;2022-08-20T16:24:16;24.70;99.90
33149;DHT22;19506;51.040;3.856;2022-08-20T16:30:10;24.50;99.90
33149;DHT22;19506;51.040;3.856;2022-08-20T16:32:42;24.50;99.90
33149;DHT22;19506;51.040;3.856;2022-08-20T16:35:26;24.50;99.90
33149;DHT22;19506;51.040;3.856;2022-08-20T16:41:11;24.50;99.90
33149;DHT22;19506;51.040;3.856;2022-08-20T16:43:43;24.50;99.90
33149;DHT22;19506;51.040;3.856;2022-08-20T16:46:17;24.50;99.90
33149;DHT22;19506;51.040;3.856;2022-08-20T16:48:53;24.50;99.90
33149;DHT22;19506;51.040;3.856;2022-08-20T16:54:03;24.50;99.90
33149;DHT22;19506;51.040;3.856;2022-08-20T16:56:41;24.50;99.90
33149;DHT22;19506;51.040;3.856;2022-08-20T16:59:13;24.40;99.90
33149;DHT22;19506;51.040;3.856;2022-08-20T17:01:40;24.40;99.60
33149;DHT22;19506;51.040;3.856;2022-08-20T17:04:06;24.50;99.90
33149;DHT22;19506;51.040;3.856;2022-08-20T17:06:39;24.50;99.90
33149;DHT22;19506;51.040;3.856;2022-08-20T17:09:11;24.50;99.90
33149;DHT22;19506;51.040;3.856;2022-08-20T17:11:37;24.40;99.90
33149;DHT22;19506;51.040;3.856;2022-08-20T17:16:43;24.40;99.90
33149;DHT22;19506;51.040;3.856;2022-08-20T17:19:30;24.40;99.90
33149;DHT22;19506;51.040;3.856;2022-08-20T17:22:10;24.40;99.30
33149;DHT22;19506;51.040;3.856;2022-08-20T17:24:37;24.40;99.20
33149;DHT22;19506;51.040;3.856;2022-08-20T17:27:09;24.30;98.50
33149;DHT22;19506;51.040;3.856;2022-08-20T17:29:46;24.30;97.80
33149;DHT22;19506;51.040;3.856;2022-08-20T17:32:27;24.30;99.20
33149;DHT22;19506;51.040;3.856;2022-08-20T17:34:56;24.30;99.20
33149;DHT22;19506;51.040;3.856;2022-08-20T17:37:26;24.30;99.30
33149;DHT22;19506;51.040;3.856;2022-08-20T17:40:40;24.30;98.50
33149;DHT22;19506;51.040;3.856;2022-08-20T17:43:00;24.30;98.00
33149;DHT22;19506;51.040;3.856;2022-08-20T17:45:35;24.30;98.10
33149;DHT22;19506;51.040;3.856;2022-08-20T17:48:04;24.30;98.80
33149;DHT22;19506;51.040;3.856;2022-08-20T17:50:34;24.20;97.70
33149;DHT22;19506;51.040;3.856;2022-08-20T17:55:41;24.10;97.50
33149;DHT22;19506;51.040;3.856;2022-08-20T17:58:12;24.20;97.20
33149;DHT22;19506;51.040;3.856;2022-08-20T18:00:39;24.10;97.80
33149;DHT22;19506;51.040;3.856;2022-08-20T18:03:22;24.10;97.10
33149;DHT22;19506;51.040;3.856;2022-08-20T18:05:56;24.10;96.90
33149;DHT22;19506;51.040;3.856;2022-08-20T18:08:52;24.10;96.70
33149;DHT22;19506;51.040;3.856;2022-08-20T18:11:43;24.10;97.40
33149;DHT22;19506;51.040;3.856;2022-08-20T18:14:21;24.10;97.20
33149;DHT22;19506;51.040;3.856;2022-08-20T18:22:35;24.10;96.90
33149;DHT22;19506;51.040;3.856;2022-08-20T18:27:54;24.10;96.80
33149;DHT22;19506;51.040;3.856;2022-08-20T18:30:23;24.10;97.30
33149;DHT22;19506;51.040;3.856;2022-08-20T18:33:04;24.10;97.40
33149;DHT22;19506;51.040;3.856;2022-08-20T18:35:39;24.00;97.70
33149;DHT22;19506;51.040;3.856;2022-08-20T18:38:27;24.00;98.40
33149;DHT22;19506;51.040;3.856;2022-08-20T18:41:06;24.00;98.40
33149;DHT22;19506;51.040;3.856;2022-08-20T18:43:32;24.00;98.60
33149;DHT22;19506;51.040;3.856;2022-08-20T18:46:26;24.00;98.70
33149;DHT22;19506;51.040;3.856;2022-08-20T18:48:59;23.90;99.00
33149;DHT22;19506;51.040;3.856;2022-08-20T18:51:37;23.90;99.40
33149;DHT22;19506;51.040;3.856;2022-08-20T18:54:04;23.90;99.60
33149;DHT22;19506;51.040;3.856;2022-08-20T18:56:36;23.80;99.80
33149;DHT22;19506;51.040;3.856;2022-08-20T18:59:18;23.80;99.90
33149;DHT22;19506;51.040;3.856;2022-08-20T19:01:47;23.80;99.90
33149;DHT22;19506;51.040;3.856;2022-08-20T19:04:33;23.70;99.60
33149;DHT22;19506;51.040;3.856;2022-08-20T19:07:02;23.70;99.80
33149;DHT22;19506;51.040;3.856;2022-08-20T19:09:53;23.70;99.90
33149;DHT22;19506;51.040;3.856;2022-08-20T19:15:05;23.60;99.90
33149;DHT22;19506;51.040;3.856;2022-08-20T19:17:47;23.50;99.90
33149;DHT22;19506;51.040;3.856;2022-08-20T19:20:19;23.50;99.90
33149;DHT22;19506;51.040;3.856;2022-08-20T19:22:48;23.50;99.90
33149;DHT22;19506;51.040;3.856;2022-08-20T19:25:36;23.50;99.90
33149;DHT22;19506;51.040;3.856;2022-08-20T19:28:18;23.40;99.90
33149;DHT22;19506;51.040;3.856;2022-08-20T19:30:45;23.40;99.90
33149;DHT22;19506;51.040;3.856;2022-08-20T19:33:10;23.40;99.90
33149;DHT22;19506;51.040;3.856;2022-08-20T19:35:37;23.40;99.90
33149;DHT22;19506;51.040;3.856;2022-08-20T19:38:06;23.40;99.90
33149;DHT22;19506;51.040;3.856;2022-08-20T19:40:34;23.40;99.90
33149;DHT22;19506;51.040;3.856;2022-08-20T19:43:03;23.40;99.90
33149;DHT22;19506;51.040;3.856;2022-08-20T19:45:43;23.40;99.90
33149;DHT22;19506;51.040;3.856;2022-08-20T19:48:12;23.30;99.90
33149;DHT22;19506;51.040;3.856;2022-08-20T19:53:22;23.30;99.90
33149;DHT22;19506;51.040;3.856;2022-08-20T19:58:25;23.30;99.90
33149;DHT22;19506;51.040;3.856;2022-08-20T20:00:52;23.10;99.90
33149;DHT22;19506;51.040;3.856;2022-08-20T20:03:30;23.00;99.90
33149;DHT22;19506;51.040;3.856;2022-08-20T20:06:14;22.80;99.90
33149;DHT22;19506;51.040;3.856;2022-08-20T20:08:58;22.70;99.90
33149;DHT22;19506;51.040;3.856;2022-08-20T20:11:33;22.70;99.90
33149;DHT22;19506;51.040;3.856;2022-08-20T20:14:02;22.60;99.90
33149;DHT22;19506;51.040;3.856;2022-08-20T20:16:29;22.60;99.90
33149;DHT22;19506;51.040;3.856;2022-08-20T20:18:55;22.50;99.90
33149;DHT22;19506;51.040;3.856;2022-08-20T20:21:24;22.50;99.90
33149;DHT22;19506;51.040;3.856;2022-08-20T20:23:59;22.40;99.90
33149;DHT22;19506;51.040;3.856;2022-08-20T20:26:31;22.30;99.90
33149;DHT22;19506;51.040;3.856;2022-08-20T20:29:41;22.30;99.90
33149;DHT22;19506;51.040;3.856;2022-08-20T20:32:19;22.20;99.90
33149;DHT22;19506;51.040;3.856;2022-08-20T20:34:51;22.20;99.90
33149;DHT22;19506;51.040;3.856;2022-08-20T20:37:38;22.10;99.90
33149;DHT22;19506;51.040;3.856;2022-08-20T20:40:25;22.10;99.90
33149;DHT22;19506;51.040;3.856;2022-08-20T20:43:01;22.00;99.90
33149;DHT22;19506;51.040;3.856;2022-08-20T20:48:26;22.00;99.90
33149;DHT22;19506;51.040;3.856;2022-08-20T20:50:53;21.90;99.90
33149;DHT22;19506;51.040;3.856;2022-08-20T20:53:31;21.90;99.90
33149;DHT22;19506;51.040;3.856;2022-08-20T20:55:58;21.80;99.90
33149;DHT22;19506;51.040;3.856;2022-08-20T20:58:26;21.80;99.90
33149;DHT22;19506;51.040;3.856;2022-08-20T21:00:51;21.80;99.90
33149;DHT22;19506;51.040;3.856;2022-08-20T21:03:17;21.90;99.90
33149;DHT22;19506;51.040;3.856;2022-08-20T21:05:43;21.90;99.90
33149;DHT22;19506;51.040;3.856;2022-08-20T21:08:09;21.90;99.90
33149;DHT22;19506;51.040;3.856;2022-08-20T21:10:40;21.90;99.90
33149;DHT22;19506;51.040;3.856;2022-08-20T21:13:08;21.90;99.90
33149;DHT22;19506;51.040;3.856;2022-08-20T21:15:36;21.90;99.90
33149;DHT22;19506;51.040;3.856;2022-08-20T21:18:04;21.80;99.90
33149;DHT22;19506;51.040;3.856;2022-08-20T21:20:31;21.80;99.90
33149;DHT22;19506;51.040;3.856;2022-08-20T21:22:57;21.70;99.90
33149;DHT22;19506;51.040;3.856;2022-08-20T21:25:26;21.80;99.90
33149;DHT22;19506;51.040;3.856;2022-08-20T21:27:53;21.90;99.90
33149;DHT22;19506;51.040;3.856;2022-08-20T21:30:20;22.10;99.90
33149;DHT22;19506;51.040;3.856;2022-08-20T21:32:46;22.10;99.90
33149;DHT22;19506;51.040;3.856;2022-08-20T21:35:14;22.00;99.90
33149;DHT22;19506;51.040;3.856;2022-08-20T21:37:40;22.00;99.90
33149;DHT22;19506;51.040;3.856;2022-08-20T21:40:06;22.00;99.90
33149;DHT22;19506;51.040;3.856;2022-08-20T21:42:36;21.90;99.90
33149;DHT22;19506;51.040;3.856;2022-08-20T21:45:04;21.90;99.90
33149;DHT22;19506;51.040;3.856;2022-08-20T21:47:30;21.90;99.90
33149;DHT22;19506;51.040;3.856;2022-08-20T21:49:56;21.90;99.90
33149;DHT22;19506;51.040;3.856;2022-08-20T21:52:22;21.90;99.90
33149;DHT22;19506;51.040;3.856;2022-08-20T21:54:47;21.90;99.90
33149;DHT22;19506;51.040;3.856;2022-08-20T21:57:21;21.90;99.90
33149;DHT22;19506;51.040;3.856;2022-08-20T21:59:48;21.90;99.90
33149;DHT22;19506;51.040;3.856;2022-08-20T22:02:15;21.90;99.90
33149;DHT22;19506;51.040;3.856;2022-08-20T22:04:41;21.90;99.90
33149;DHT22;19506;51.040;3.856;2022-08-20T22:07:07;21.90;99.90